createdAt,value
2022-11-26T00:21:50.290Z,96.90
2022-11-26T00:51:53.660Z,97.54
2022-11-26T01:21:57.183Z,97.74
2022-11-26T01:52:00.597Z,97.87
2022-11-26T02:22:04.218Z,97.92
2022-11-26T02:52:08.194Z,98.04
2022-11-26T03:22:11.766Z,97.78
2022-11-26T03:52:15.001Z,97.67
2022-11-26T04:22:19.633Z,98.31
2022-11-26T04:52:22.747Z,97.28
2022-11-26T05:22:26.396Z,97.76
2022-11-26T05:52:29.656Z,97.74
2022-11-26T06:22:33.030Z,97.54
2022-11-26T06:52:36.503Z,97.65
2022-11-26T07:22:40.882Z,97.54
2022-11-26T07:52:44.270Z,97.62
2022-11-26T08:22:47.867Z,97.42
2022-11-26T08:52:51.316Z,97.45
2022-11-26T09:22:55.520Z,97.38
2022-11-26T09:52:59.276Z,97.16
2022-11-26T10:23:02.799Z,97.64
2022-11-26T10:53:06.157Z,97.79
2022-11-26T11:23:09.754Z,97.83
2022-11-26T11:53:12.617Z,97.35
2022-11-26T12:23:21.196Z,96.85
2022-11-26T12:53:25.893Z,96.22
2022-11-26T13:23:30.622Z,96.22
2022-11-26T13:53:33.602Z,96.24
2022-11-26T14:23:36.692Z,95.51
2022-11-26T14:53:39.706Z,96.28
2022-11-26T15:23:43.407Z,96.12
2022-11-26T15:53:47.017Z,96.14
2022-11-26T16:23:50.560Z,95.40
2022-11-26T16:53:53.934Z,95.71
2022-11-26T17:23:58.536Z,96.09
2022-11-26T17:54:02.176Z,95.58
2022-11-26T18:24:05.461Z,95.99
2022-11-26T18:54:11.231Z,96.29
2022-11-26T19:24:39.389Z,96.07
2022-11-26T19:54:42.463Z,96.13
2022-11-26T20:24:45.678Z,97.08
2022-11-26T20:54:53.497Z,96.62
2022-11-26T21:24:57.323Z,97.25
2022-11-26T21:55:03.600Z,97.27
2022-11-26T22:25:08.230Z,98.16
2022-11-26T22:55:12.617Z,98.79
2022-11-26T23:25:17.729Z,98.85
2022-11-26T23:55:20.702Z,98.58
